sensor_id;sensor_type;location;lat;lon;timestamp;temperature;humidity
40534;DHT22;26233;51.894;10.192;2022-09-16T00:00:27;15.50;46.40
40534;DHT22;26233;51.894;10.192;2022-09-16T00:02:54;15.50;46.30
40534;DHT22;26233;51.894;10.192;2022-09-16T00:05:24;15.40;46.30
40534;DHT22;26233;51.894;10.192;2022-09-16T00:07:51;15.40;46.30
40534;DHT22;26233;51.894;10.192;2022-09-16T00:10:19;15.30;46.30
40534;DHT22;26233;51.894;10.192;2022-09-16T00:12:46;15.30;46.30
40534;DHT22;26233;51.894;10.192;2022-09-16T00:15:13;15.30;46.30
40534;DHT22;26233;51.894;10.192;2022-09-16T00:17:41;15.20;46.30
40534;DHT22;26233;51.894;10.192;2022-09-16T00:20:09;15.20;46.40
40534;DHT22;26233;51.894;10.192;2022-09-16T00:22:37;15.10;46.30
40534;DHT22;26233;51.894;10.192;2022-09-16T00:25:05;15.10;46.30
40534;DHT22;26233;51.894;10.192;2022-09-16T00:27:33;15.10;46.40
40534;DHT22;26233;51.894;10.192;2022-09-16T00:30:00;15.10;46.50
40534;DHT22;26233;51.894;10.192;2022-09-16T00:32:27;15.00;46.40
40534;DHT22;26233;51.894;10.192;2022-09-16T00:34:54;15.00;46.50
40534;DHT22;26233;51.894;10.192;2022-09-16T00:37:21;15.00;46.50
40534;DHT22;26233;51.894;10.192;2022-09-16T00:39:50;15.00;46.60
40534;DHT22;26233;51.894;10.192;2022-09-16T00:42:17;15.00;46.70
40534;DHT22;26233;51.894;10.192;2022-09-16T00:44:56;15.00;46.70
40534;DHT22;26233;51.894;10.192;2022-09-16T00:47:30;15.00;46.80
40534;DHT22;26233;51.894;10.192;2022-09-16T00:50:03;15.00;46.70
40534;DHT22;26233;51.894;10.192;2022-09-16T00:52:34;15.00;46.70
40534;DHT22;26233;51.894;10.192;2022-09-16T00:55:06;15.00;46.60
40534;DHT22;26233;51.894;10.192;2022-09-16T00:57:36;15.00;46.60
40534;DHT22;26233;51.894;10.192;2022-09-16T01:00:06;15.00;46.60
40534;DHT22;26233;51.894;10.192;2022-09-16T01:02:34;15.00;46.60
40534;DHT22;26233;51.894;10.192;2022-09-16T01:05:04;15.00;46.50
40534;DHT22;26233;51.894;10.192;2022-09-16T01:07:35;15.00;46.60
40534;DHT22;26233;51.894;10.192;2022-09-16T01:10:08;14.90;46.50
40534;DHT22;26233;51.894;10.192;2022-09-16T01:12:37;15.00;46.50
40534;DHT22;26233;51.894;10.192;2022-09-16T01:15:06;14.90;46.50
40534;DHT22;26233;51.894;10.192;2022-09-16T01:17:49;14.90;46.50
40534;DHT22;26233;51.894;10.192;2022-09-16T01:20:46;14.90;46.60
40534;DHT22;26233;51.894;10.192;2022-09-16T01:23:49;14.90;46.70
40534;DHT22;26233;51.894;10.192;2022-09-16T01:26:59;14.80;46.50
40534;DHT22;26233;51.894;10.192;2022-09-16T01:30:12;14.80;46.70
40534;DHT22;26233;51.894;10.192;2022-09-16T01:33:00;14.80;46.50
40534;DHT22;26233;51.894;10.192;2022-09-16T01:35:40;14.80;46.60
40534;DHT22;26233;51.894;10.192;2022-09-16T01:38:23;14.70;46.50
40534;DHT22;26233;51.894;10.192;2022-09-16T01:41:00;14.80;46.60
40534;DHT22;26233;51.894;10.192;2022-09-16T01:43:39;14.80;46.70
40534;DHT22;26233;51.894;10.192;2022-09-16T01:46:17;14.70;46.60
40534;DHT22;26233;51.894;10.192;2022-09-16T01:48:53;14.80;46.70
40534;DHT22;26233;51.894;10.192;2022-09-16T01:51:29;14.80;46.70
40534;DHT22;26233;51.894;10.192;2022-09-16T01:54:02;14.80;46.60
40534;DHT22;26233;51.894;10.192;2022-09-16T01:56:36;14.80;46.60
40534;DHT22;26233;51.894;10.192;2022-09-16T01:59:09;14.80;46.60
40534;DHT22;26233;51.894;10.192;2022-09-16T02:01:41;14.80;46.60
40534;DHT22;26233;51.894;10.192;2022-09-16T02:04:16;14.80;46.60
40534;DHT22;26233;51.894;10.192;2022-09-16T02:06:49;14.80;46.60
40534;DHT22;26233;51.894;10.192;2022-09-16T02:09:20;14.80;46.60
40534;DHT22;26233;51.894;10.192;2022-09-16T02:11:51;14.80;46.70
40534;DHT22;26233;51.894;10.192;2022-09-16T02:14:21;14.80;46.70
40534;DHT22;26233;51.894;10.192;2022-09-16T02:16:53;14.90;46.80
40534;DHT22;26233;51.894;10.192;2022-09-16T02:19:26;14.90;46.80
40534;DHT22;26233;51.894;10.192;2022-09-16T02:21:56;14.90;46.80
40534;DHT22;26233;51.894;10.192;2022-09-16T02:24:29;14.90;46.70
40534;DHT22;26233;51.894;10.192;2022-09-16T02:26:59;14.90;46.70
40534;DHT22;26233;51.894;10.192;2022-09-16T02:29:32;15.00;46.80
40534;DHT22;26233;51.894;10.192;2022-09-16T02:32:05;14.90;46.70
40534;DHT22;26233;51.894;10.192;2022-09-16T02:34:37;14.90;46.70
40534;DHT22;26233;51.894;10.192;2022-09-16T02:37:08;14.90;46.70
40534;DHT22;26233;51.894;10.192;2022-09-16T02:39:39;14.90;46.70
40534;DHT22;26233;51.894;10.192;2022-09-16T02:42:09;14.90;46.70
40534;DHT22;26233;51.894;10.192;2022-09-16T02:44:36;14.90;46.70
40534;DHT22;26233;51.894;10.192;2022-09-16T02:47:09;14.90;46.70
40534;DHT22;26233;51.894;10.192;2022-09-16T02:49:44;14.90;46.90
40534;DHT22;26233;51.894;10.192;2022-09-16T02:52:22;14.90;46.90
40534;DHT22;26233;51.894;10.192;2022-09-16T02:55:00;14.90;46.90
40534;DHT22;26233;51.894;10.192;2022-09-16T02:57:32;14.90;46.80
40534;DHT22;26233;51.894;10.192;2022-09-16T02:59:59;14.90;46.70
40534;DHT22;26233;51.894;10.192;2022-09-16T03:02:27;14.90;46.70
40534;DHT22;26233;51.894;10.192;2022-09-16T03:04:55;14.90;46.80
40534;DHT22;26233;51.894;10.192;2022-09-16T03:07:22;14.90;46.80
40534;DHT22;26233;51.894;10.192;2022-09-16T03:09:51;14.90;46.80
40534;DHT22;26233;51.894;10.192;2022-09-16T03:12:38;14.80;46.70
40534;DHT22;26233;51.894;10.192;2022-09-16T03:15:32;14.80;46.80
40534;DHT22;26233;51.894;10.192;2022-09-16T03:21:16;14.80;46.90
40534;DHT22;26233;51.894;10.192;2022-09-16T03:23:55;14.70;46.80
40534;DHT22;26233;51.894;10.192;2022-09-16T03:26:31;14.70;46.80
40534;DHT22;26233;51.894;10.192;2022-09-16T03:29:09;14.60;46.80
40534;DHT22;26233;51.894;10.192;2022-09-16T03:31:46;14.60;46.90
40534;DHT22;26233;51.894;10.192;2022-09-16T03:34:20;14.60;46.90
40534;DHT22;26233;51.894;10.192;2022-09-16T03:36:55;14.50;46.90
40534;DHT22;26233;51.894;10.192;2022-09-16T03:39:25;14.50;47.00
40534;DHT22;26233;51.894;10.192;2022-09-16T03:41:52;14.50;47.00
40534;DHT22;26233;51.894;10.192;2022-09-16T03:44:31;14.50;47.00
40534;DHT22;26233;51.894;10.192;2022-09-16T03:46:58;14.50;47.20
40534;DHT22;26233;51.894;10.192;2022-09-16T03:49:25;14.50;47.20
40534;DHT22;26233;51.894;10.192;2022-09-16T03:51:54;14.50;47.20
40534;DHT22;26233;51.894;10.192;2022-09-16T03:54:21;14.50;47.30
40534;DHT22;26233;51.894;10.192;2022-09-16T03:56:48;14.50;47.30
40534;DHT22;26233;51.894;10.192;2022-09-16T03:59:16;14.40;47.30
40534;DHT22;26233;51.894;10.192;2022-09-16T04:01:43;14.50;47.30
40534;DHT22;26233;51.894;10.192;2022-09-16T04:04:11;14.50;47.30
40534;DHT22;26233;51.894;10.192;2022-09-16T04:06:41;14.60;47.50
40534;DHT22;26233;51.894;10.192;2022-09-16T04:09:11;14.60;47.40
40534;DHT22;26233;51.894;10.192;2022-09-16T04:11:39;14.60;47.40
40534;DHT22;26233;51.894;10.192;2022-09-16T04:14:07;14.50;47.30
40534;DHT22;26233;51.894;10.192;2022-09-16T04:16:35;14.60;47.40
40534;DHT22;26233;51.894;10.192;2022-09-16T04:19:02;14.50;47.30
40534;DHT22;26233;51.894;10.192;2022-09-16T04:21:29;14.50;47.30
40534;DHT22;26233;51.894;10.192;2022-09-16T04:23:56;14.50;47.30
40534;DHT22;26233;51.894;10.192;2022-09-16T04:26:24;14.50;47.30
40534;DHT22;26233;51.894;10.192;2022-09-16T04:28:54;14.50;47.30
40534;DHT22;26233;51.894;10.192;2022-09-16T04:31:21;14.50;47.30
40534;DHT22;26233;51.894;10.192;2022-09-16T04:33:49;14.50;47.30
40534;DHT22;26233;51.894;10.192;2022-09-16T04:36:17;14.50;47.30
40534;DHT22;26233;51.894;10.192;2022-09-16T04:38:46;14.50;47.30
40534;DHT22;26233;51.894;10.192;2022-09-16T04:41:16;14.50;47.30
40534;DHT22;26233;51.894;10.192;2022-09-16T04:43:49;14.40;47.30
40534;DHT22;26233;51.894;10.192;2022-09-16T04:46:17;14.40;47.40
40534;DHT22;26233;51.894;10.192;2022-09-16T04:48:46;14.40;48.00
40534;DHT22;26233;51.894;10.192;2022-09-16T04:51:14;14.40;47.40
40534;DHT22;26233;51.894;10.192;2022-09-16T04:53:41;14.40;47.50
40534;DHT22;26233;51.894;10.192;2022-09-16T04:56:11;14.40;47.50
40534;DHT22;26233;51.894;10.192;2022-09-16T04:58:40;14.40;47.60
40534;DHT22;26233;51.894;10.192;2022-09-16T05:01:10;14.40;47.60
40534;DHT22;26233;51.894;10.192;2022-09-16T05:03:39;14.40;47.70
40534;DHT22;26233;51.894;10.192;2022-09-16T05:06:08;14.40;47.70
40534;DHT22;26233;51.894;10.192;2022-09-16T05:08:37;14.40;47.70
40534;DHT22;26233;51.894;10.192;2022-09-16T05:11:09;14.40;47.70
40534;DHT22;26233;51.894;10.192;2022-09-16T05:13:38;14.40;47.70
40534;DHT22;26233;51.894;10.192;2022-09-16T05:16:07;14.50;47.80
40534;DHT22;26233;51.894;10.192;2022-09-16T05:18:39;14.50;47.80
40534;DHT22;26233;51.894;10.192;2022-09-16T05:21:09;14.50;47.80
40534;DHT22;26233;51.894;10.192;2022-09-16T05:23:38;14.50;47.80
40534;DHT22;26233;51.894;10.192;2022-09-16T05:26:07;14.50;47.80
40534;DHT22;26233;51.894;10.192;2022-09-16T05:28:35;14.50;47.80
40534;DHT22;26233;51.894;10.192;2022-09-16T05:31:14;14.60;47.90
40534;DHT22;26233;51.894;10.192;2022-09-16T05:33:44;14.50;48.00
40534;DHT22;26233;51.894;10.192;2022-09-16T05:36:13;14.60;48.00
40534;DHT22;26233;51.894;10.192;2022-09-16T05:38:41;14.70;48.10
40534;DHT22;26233;51.894;10.192;2022-09-16T05:41:09;14.80;48.10
40534;DHT22;26233;51.894;10.192;2022-09-16T05:43:37;14.80;48.00
40534;DHT22;26233;51.894;10.192;2022-09-16T05:46:05;14.80;47.90
40534;DHT22;26233;51.894;10.192;2022-09-16T05:48:34;14.80;48.40
40534;DHT22;26233;51.894;10.192;2022-09-16T05:51:03;14.80;47.80
40534;DHT22;26233;51.894;10.192;2022-09-16T05:53:33;14.80;47.80
40534;DHT22;26233;51.894;10.192;2022-09-16T05:56:02;14.80;47.80
40534;DHT22;26233;51.894;10.192;2022-09-16T05:58:32;14.90;48.00
40534;DHT22;26233;51.894;10.192;2022-09-16T06:01:01;14.90;48.00
40534;DHT22;26233;51.894;10.192;2022-09-16T06:03:31;14.90;48.00
40534;DHT22;26233;51.894;10.192;2022-09-16T06:06:01;15.00;48.10
40534;DHT22;26233;51.894;10.192;2022-09-16T06:08:32;15.00;48.00
40534;DHT22;26233;51.894;10.192;2022-09-16T06:11:01;15.00;47.80
40534;DHT22;26233;51.894;10.192;2022-09-16T06:13:29;15.10;47.70
40534;DHT22;26233;51.894;10.192;2022-09-16T06:15:56;15.10;47.70
40534;DHT22;26233;51.894;10.192;2022-09-16T06:18:25;15.10;47.70
40534;DHT22;26233;51.894;10.192;2022-09-16T06:20:54;15.10;47.70
40534;DHT22;26233;51.894;10.192;2022-09-16T06:23:23;15.10;47.70
40534;DHT22;26233;51.894;10.192;2022-09-16T06:25:58;15.10;47.70
40534;DHT22;26233;51.894;10.192;2022-09-16T06:28:28;15.10;47.80
40534;DHT22;26233;51.894;10.192;2022-09-16T06:31:07;15.10;47.80
40534;DHT22;26233;51.894;10.192;2022-09-16T06:33:38;15.10;47.80
40534;DHT22;26233;51.894;10.192;2022-09-16T06:36:07;15.10;47.70
40534;DHT22;26233;51.894;10.192;2022-09-16T06:38:37;15.10;47.70
40534;DHT22;26233;51.894;10.192;2022-09-16T06:41:07;15.10;47.80
40534;DHT22;26233;51.894;10.192;2022-09-16T06:43:37;15.10;47.90
40534;DHT22;26233;51.894;10.192;2022-09-16T06:46:05;15.10;47.90
40534;DHT22;26233;51.894;10.192;2022-09-16T06:48:35;15.10;48.00
40534;DHT22;26233;51.894;10.192;2022-09-16T06:51:04;15.20;48.10
40534;DHT22;26233;51.894;10.192;2022-09-16T06:53:32;15.10;48.10
40534;DHT22;26233;51.894;10.192;2022-09-16T06:56:03;15.20;48.20
40534;DHT22;26233;51.894;10.192;2022-09-16T06:58:32;15.20;48.20
40534;DHT22;26233;51.894;10.192;2022-09-16T07:01:05;15.20;48.20
40534;DHT22;26233;51.894;10.192;2022-09-16T07:03:32;15.30;48.30
40534;DHT22;26233;51.894;10.192;2022-09-16T07:06:03;15.30;48.30
40534;DHT22;26233;51.894;10.192;2022-09-16T07:08:32;15.30;48.30
40534;DHT22;26233;51.894;10.192;2022-09-16T07:11:04;15.40;48.30
40534;DHT22;26233;51.894;10.192;2022-09-16T07:13:33;15.40;48.30
40534;DHT22;26233;51.894;10.192;2022-09-16T07:16:02;15.50;48.40
40534;DHT22;26233;51.894;10.192;2022-09-16T07:18:31;15.70;49.10
40534;DHT22;26233;51.894;10.192;2022-09-16T07:21:02;15.80;49.80
40534;DHT22;26233;51.894;10.192;2022-09-16T07:23:30;16.10;50.20
40534;DHT22;26233;51.894;10.192;2022-09-16T07:26:03;16.50;50.50
40534;DHT22;26233;51.894;10.192;2022-09-16T07:28:32;16.80;50.10
40534;DHT22;26233;51.894;10.192;2022-09-16T07:31:04;17.10;49.80
40534;DHT22;26233;51.894;10.192;2022-09-16T07:33:35;17.30;49.10
40534;DHT22;26233;51.894;10.192;2022-09-16T07:36:04;17.50;48.80
40534;DHT22;26233;51.894;10.192;2022-09-16T07:38:32;17.70;48.80
40534;DHT22;26233;51.894;10.192;2022-09-16T07:41:05;17.90;49.20
40534;DHT22;26233;51.894;10.192;2022-09-16T07:43:34;18.10;49.20
40534;DHT22;26233;51.894;10.192;2022-09-16T07:46:03;18.30;48.90
40534;DHT22;26233;51.894;10.192;2022-09-16T07:48:31;18.60;49.30
40534;DHT22;26233;51.894;10.192;2022-09-16T07:51:00;18.80;48.30
40534;DHT22;26233;51.894;10.192;2022-09-16T07:53:31;19.00;47.20
40534;DHT22;26233;51.894;10.192;2022-09-16T07:56:00;18.80;46.30
40534;DHT22;26233;51.894;10.192;2022-09-16T07:58:30;18.70;45.80
40534;DHT22;26233;51.894;10.192;2022-09-16T08:00:57;18.70;46.90
40534;DHT22;26233;51.894;10.192;2022-09-16T08:03:25;18.80;47.90
40534;DHT22;26233;51.894;10.192;2022-09-16T08:05:52;19.00;48.10
40534;DHT22;26233;51.894;10.192;2022-09-16T08:08:19;19.30;48.30
40534;DHT22;26233;51.894;10.192;2022-09-16T08:10:52;19.60;48.60
40534;DHT22;26233;51.894;10.192;2022-09-16T08:13:20;19.90;48.10
40534;DHT22;26233;51.894;10.192;2022-09-16T08:15:49;20.40;48.60
40534;DHT22;26233;51.894;10.192;2022-09-16T08:18:18;20.60;47.80
40534;DHT22;26233;51.894;10.192;2022-09-16T08:20:46;20.90;47.40
40534;DHT22;26233;51.894;10.192;2022-09-16T08:23:13;21.10;46.80
40534;DHT22;26233;51.894;10.192;2022-09-16T08:25:40;21.10;45.90
40534;DHT22;26233;51.894;10.192;2022-09-16T08:28:11;21.10;45.40
40534;DHT22;26233;51.894;10.192;2022-09-16T08:30:39;21.00;44.60
40534;DHT22;26233;51.894;10.192;2022-09-16T08:33:08;20.80;44.30
40534;DHT22;26233;51.894;10.192;2022-09-16T08:35:35;20.60;44.00
40534;DHT22;26233;51.894;10.192;2022-09-16T08:38:03;20.40;44.30
40534;DHT22;26233;51.894;10.192;2022-09-16T08:40:33;20.30;44.30
40534;DHT22;26233;51.894;10.192;2022-09-16T08:43:07;20.10;44.00
40534;DHT22;26233;51.894;10.192;2022-09-16T08:45:42;20.00;43.70
40534;DHT22;26233;51.894;10.192;2022-09-16T08:48:25;19.90;43.90
40534;DHT22;26233;51.894;10.192;2022-09-16T08:50:58;19.70;43.70
40534;DHT22;26233;51.894;10.192;2022-09-16T08:53:32;19.60;44.10
40534;DHT22;26233;51.894;10.192;2022-09-16T08:56:03;19.50;43.90
40534;DHT22;26233;51.894;10.192;2022-09-16T08:58:37;19.40;44.00
40534;DHT22;26233;51.894;10.192;2022-09-16T09:01:14;19.30;43.80
40534;DHT22;26233;51.894;10.192;2022-09-16T09:03:46;19.20;43.30
40534;DHT22;26233;51.894;10.192;2022-09-16T09:06:24;19.10;43.60
40534;DHT22;26233;51.894;10.192;2022-09-16T09:09:04;19.10;43.50
40534;DHT22;26233;51.894;10.192;2022-09-16T09:11:43;19.00;43.40
40534;DHT22;26233;51.894;10.192;2022-09-16T09:14:27;18.90;43.30
40534;DHT22;26233;51.894;10.192;2022-09-16T09:17:05;18.80;43.10
40534;DHT22;26233;51.894;10.192;2022-09-16T09:19:48;18.60;43.20
40534;DHT22;26233;51.894;10.192;2022-09-16T09:22:37;18.50;43.20
40534;DHT22;26233;51.894;10.192;2022-09-16T09:25:24;18.30;43.30
40534;DHT22;26233;51.894;10.192;2022-09-16T09:28:04;18.20;43.70
40534;DHT22;26233;51.894;10.192;2022-09-16T09:30:47;18.20;44.00
40534;DHT22;26233;51.894;10.192;2022-09-16T09:33:25;18.30;44.00
40534;DHT22;26233;51.894;10.192;2022-09-16T09:39:06;18.40;44.10
40534;DHT22;26233;51.894;10.192;2022-09-16T09:41:44;18.90;45.50
40534;DHT22;26233;51.894;10.192;2022-09-16T09:47:15;20.20;46.30
40534;DHT22;26233;51.894;10.192;2022-09-16T09:49:47;21.10;47.50
40534;DHT22;26233;51.894;10.192;2022-09-16T09:52:24;21.90;47.30
40534;DHT22;26233;51.894;10.192;2022-09-16T09:54:54;22.60;46.30
40534;DHT22;26233;51.894;10.192;2022-09-16T09:57:31;23.10;45.30
40534;DHT22;26233;51.894;10.192;2022-09-16T10:00:04;23.50;44.00
40534;DHT22;26233;51.894;10.192;2022-09-16T10:02:39;23.80;42.80
40534;DHT22;26233;51.894;10.192;2022-09-16T10:05:14;24.10;43.50
40534;DHT22;26233;51.894;10.192;2022-09-16T10:07:48;24.40;43.20
40534;DHT22;26233;51.894;10.192;2022-09-16T10:10:21;24.80;42.90
40534;DHT22;26233;51.894;10.192;2022-09-16T10:12:50;25.00;42.50
40534;DHT22;26233;51.894;10.192;2022-09-16T10:15:20;25.10;41.70
40534;DHT22;26233;51.894;10.192;2022-09-16T10:17:49;25.20;40.50
40534;DHT22;26233;51.894;10.192;2022-09-16T10:20:25;25.30;41.10
40534;DHT22;26233;51.894;10.192;2022-09-16T10:22:58;25.50;39.90
40534;DHT22;26233;51.894;10.192;2022-09-16T10:25:27;25.70;40.70
40534;DHT22;26233;51.894;10.192;2022-09-16T10:27:57;26.00;41.60
40534;DHT22;26233;51.894;10.192;2022-09-16T10:30:26;26.30;40.30
40534;DHT22;26233;51.894;10.192;2022-09-16T10:33:01;26.30;39.30
40534;DHT22;26233;51.894;10.192;2022-09-16T10:35:31;26.10;37.70
40534;DHT22;26233;51.894;10.192;2022-09-16T10:38:03;25.90;37.60
40534;DHT22;26233;51.894;10.192;2022-09-16T10:40:33;25.60;36.90
40534;DHT22;26233;51.894;10.192;2022-09-16T10:43:02;25.40;37.50
40534;DHT22;26233;51.894;10.192;2022-09-16T10:45:33;25.40;38.10
40534;DHT22;26233;51.894;10.192;2022-09-16T10:48:04;25.50;38.80
40534;DHT22;26233;51.894;10.192;2022-09-16T10:50:33;25.70;38.80
40534;DHT22;26233;51.894;10.192;2022-09-16T10:53:20;26.10;39.20
40534;DHT22;26233;51.894;10.192;2022-09-16T10:55:56;26.40;38.10
40534;DHT22;26233;51.894;10.192;2022-09-16T10:58:24;26.90;38.50
40534;DHT22;26233;51.894;10.192;2022-09-16T11:01:14;27.20;37.80
40534;DHT22;26233;51.894;10.192;2022-09-16T11:04:09;27.50;36.20
40534;DHT22;26233;51.894;10.192;2022-09-16T11:06:52;27.60;35.90
40534;DHT22;26233;51.894;10.192;2022-09-16T11:09:31;27.60;35.40
40534;DHT22;26233;51.894;10.192;2022-09-16T11:12:23;27.60;35.80
40534;DHT22;26233;51.894;10.192;2022-09-16T11:15:04;27.70;35.40
40534;DHT22;26233;51.894;10.192;2022-09-16T11:17:46;27.80;35.80
40534;DHT22;26233;51.894;10.192;2022-09-16T11:20:50;27.80;35.00
40534;DHT22;26233;51.894;10.192;2022-09-16T11:26:37;27.60;34.20
40534;DHT22;26233;51.894;10.192;2022-09-16T11:29:41;27.30;33.90
40534;DHT22;26233;51.894;10.192;2022-09-16T11:32:26;27.10;33.20
40534;DHT22;26233;51.894;10.192;2022-09-16T11:35:12;26.70;32.90
40534;DHT22;26233;51.894;10.192;2022-09-16T11:37:53;26.20;32.80
40534;DHT22;26233;51.894;10.192;2022-09-16T11:40:33;25.90;33.30
40534;DHT22;26233;51.894;10.192;2022-09-16T11:43:36;25.60;33.60
40534;DHT22;26233;51.894;10.192;2022-09-16T11:46:30;25.40;33.30
40534;DHT22;26233;51.894;10.192;2022-09-16T11:49:17;25.10;33.30
40534;DHT22;26233;51.894;10.192;2022-09-16T11:52:00;24.80;33.20
40534;DHT22;26233;51.894;10.192;2022-09-16T11:54:46;24.70;34.00
40534;DHT22;26233;51.894;10.192;2022-09-16T11:57:25;24.70;34.20
40534;DHT22;26233;51.894;10.192;2022-09-16T12:00:01;24.70;34.10
40534;DHT22;26233;51.894;10.192;2022-09-16T12:02:35;24.60;32.50
40534;DHT22;26233;51.894;10.192;2022-09-16T12:05:13;24.30;32.20
40534;DHT22;26233;51.894;10.192;2022-09-16T12:07:49;24.00;32.40
40534;DHT22;26233;51.894;10.192;2022-09-16T12:10:22;24.00;33.40
40534;DHT22;26233;51.894;10.192;2022-09-16T12:12:54;24.00;33.80
40534;DHT22;26233;51.894;10.192;2022-09-16T12:15:29;24.10;33.70
40534;DHT22;26233;51.894;10.192;2022-09-16T12:18:02;24.10;33.00
40534;DHT22;26233;51.894;10.192;2022-09-16T12:20:39;24.00;32.50
40534;DHT22;26233;51.894;10.192;2022-09-16T12:23:13;23.90;32.00
40534;DHT22;26233;51.894;10.192;2022-09-16T12:25:46;23.70;31.50
40534;DHT22;26233;51.894;10.192;2022-09-16T12:28:23;23.50;32.20
40534;DHT22;26233;51.894;10.192;2022-09-16T12:31:02;23.20;31.20
40534;DHT22;26233;51.894;10.192;2022-09-16T12:33:35;23.00;31.20
40534;DHT22;26233;51.894;10.192;2022-09-16T12:36:07;22.70;31.40
40534;DHT22;26233;51.894;10.192;2022-09-16T12:38:37;22.50;31.80
40534;DHT22;26233;51.894;10.192;2022-09-16T12:41:19;22.40;32.30
40534;DHT22;26233;51.894;10.192;2022-09-16T12:47:58;22.20;32.60
40534;DHT22;26233;51.894;10.192;2022-09-16T12:50:56;22.10;32.50
40534;DHT22;26233;51.894;10.192;2022-09-16T12:53:56;22.00;32.50
40534;DHT22;26233;51.894;10.192;2022-09-16T12:56:46;22.00;32.40
40534;DHT22;26233;51.894;10.192;2022-09-16T13:02:36;22.10;32.60
40534;DHT22;26233;51.894;10.192;2022-09-16T13:05:15;22.30;32.80
40534;DHT22;26233;51.894;10.192;2022-09-16T13:07:49;22.40;32.30
40534;DHT22;26233;51.894;10.192;2022-09-16T13:10:20;22.40;31.80
40534;DHT22;26233;51.894;10.192;2022-09-16T13:12:58;22.40;31.70
40534;DHT22;26233;51.894;10.192;2022-09-16T13:15:28;22.40;32.50
40534;DHT22;26233;51.894;10.192;2022-09-16T13:18:08;22.40;31.80
40534;DHT22;26233;51.894;10.192;2022-09-16T13:20:40;22.40;31.30
40534;DHT22;26233;51.894;10.192;2022-09-16T13:23:12;22.30;31.50
40534;DHT22;26233;51.894;10.192;2022-09-16T13:25:47;22.20;31.20
40534;DHT22;26233;51.894;10.192;2022-09-16T13:28:25;22.00;31.00
40534;DHT22;26233;51.894;10.192;2022-09-16T13:31:15;21.80;30.80
40534;DHT22;26233;51.894;10.192;2022-09-16T13:33:45;21.70;31.10
40534;DHT22;26233;51.894;10.192;2022-09-16T13:36:29;21.40;31.30
40534;DHT22;26233;51.894;10.192;2022-09-16T13:38:59;21.20;31.40
40534;DHT22;26233;51.894;10.192;2022-09-16T13:41:31;20.90;31.50
40534;DHT22;26233;51.894;10.192;2022-09-16T13:44:00;20.50;31.60
40534;DHT22;26233;51.894;10.192;2022-09-16T13:46:31;20.10;32.00
40534;DHT22;26233;51.894;10.192;2022-09-16T13:49:15;19.80;32.20
40534;DHT22;26233;51.894;10.192;2022-09-16T13:51:48;19.30;32.50
40534;DHT22;26233;51.894;10.192;2022-09-16T13:54:20;18.90;32.30
40534;DHT22;26233;51.894;10.192;2022-09-16T13:57:01;18.70;32.70
40534;DHT22;26233;51.894;10.192;2022-09-16T13:59:51;18.40;33.30
40534;DHT22;26233;51.894;10.192;2022-09-16T14:02:36;18.30;34.30
40534;DHT22;26233;51.894;10.192;2022-09-16T14:05:34;18.30;35.10
40534;DHT22;26233;51.894;10.192;2022-09-16T14:08:15;18.30;35.50
40534;DHT22;26233;51.894;10.192;2022-09-16T14:10:52;18.60;36.10
40534;DHT22;26233;51.894;10.192;2022-09-16T14:13:23;18.90;36.40
40534;DHT22;26233;51.894;10.192;2022-09-16T14:15:53;19.20;36.40
40534;DHT22;26233;51.894;10.192;2022-09-16T14:18:25;19.40;36.30
40534;DHT22;26233;51.894;10.192;2022-09-16T14:20:58;19.70;36.20
40534;DHT22;26233;51.894;10.192;2022-09-16T14:23:29;19.90;36.10
40534;DHT22;26233;51.894;10.192;2022-09-16T14:25:57;20.10;35.90
40534;DHT22;26233;51.894;10.192;2022-09-16T14:28:35;20.20;35.70
40534;DHT22;26233;51.894;10.192;2022-09-16T14:31:12;20.40;35.40
40534;DHT22;26233;51.894;10.192;2022-09-16T14:33:44;20.50;35.00
40534;DHT22;26233;51.894;10.192;2022-09-16T14:36:17;20.60;35.10
40534;DHT22;26233;51.894;10.192;2022-09-16T14:38:53;20.70;35.00
40534;DHT22;26233;51.894;10.192;2022-09-16T14:41:24;20.70;34.70
40534;DHT22;26233;51.894;10.192;2022-09-16T14:44:01;20.80;34.70
40534;DHT22;26233;51.894;10.192;2022-09-16T14:46:37;20.80;34.50
40534;DHT22;26233;51.894;10.192;2022-09-16T14:49:08;20.90;34.30
40534;DHT22;26233;51.894;10.192;2022-09-16T14:51:38;20.90;34.20
40534;DHT22;26233;51.894;10.192;2022-09-16T14:54:16;20.90;33.80
40534;DHT22;26233;51.894;10.192;2022-09-16T14:56:54;20.90;33.60
40534;DHT22;26233;51.894;10.192;2022-09-16T14:59:25;20.80;33.70
40534;DHT22;26233;51.894;10.192;2022-09-16T15:02:02;20.80;33.70
40534;DHT22;26233;51.894;10.192;2022-09-16T15:04:35;20.80;33.50
40534;DHT22;26233;51.894;10.192;2022-09-16T15:07:08;20.80;33.50
40534;DHT22;26233;51.894;10.192;2022-09-16T15:09:44;20.80;33.20
40534;DHT22;26233;51.894;10.192;2022-09-16T15:12:22;20.80;32.90
40534;DHT22;26233;51.894;10.192;2022-09-16T15:14:51;20.90;33.00
40534;DHT22;26233;51.894;10.192;2022-09-16T15:17:21;20.80;32.80
40534;DHT22;26233;51.894;10.192;2022-09-16T15:19:56;20.80;32.80
40534;DHT22;26233;51.894;10.192;2022-09-16T15:22:24;20.70;32.70
40534;DHT22;26233;51.894;10.192;2022-09-16T15:24:55;20.70;32.70
40534;DHT22;26233;51.894;10.192;2022-09-16T15:27:25;20.70;32.60
40534;DHT22;26233;51.894;10.192;2022-09-16T15:29:56;20.70;32.70
40534;DHT22;26233;51.894;10.192;2022-09-16T15:32:26;20.60;32.50
40534;DHT22;26233;51.894;10.192;2022-09-16T15:35:20;20.60;32.50
40534;DHT22;26233;51.894;10.192;2022-09-16T15:37:48;20.50;32.00
40534;DHT22;26233;51.894;10.192;2022-09-16T15:40:30;20.30;32.70
40534;DHT22;26233;51.894;10.192;2022-09-16T15:43:11;20.10;31.90
40534;DHT22;26233;51.894;10.192;2022-09-16T15:45:41;20.00;32.00
40534;DHT22;26233;51.894;10.192;2022-09-16T15:48:14;19.80;32.00
40534;DHT22;26233;51.894;10.192;2022-09-16T15:50:45;19.70;32.00
40534;DHT22;26233;51.894;10.192;2022-09-16T15:53:18;19.60;32.10
40534;DHT22;26233;51.894;10.192;2022-09-16T15:55:56;19.40;32.00
40534;DHT22;26233;51.894;10.192;2022-09-16T15:58:35;19.30;32.20
40534;DHT22;26233;51.894;10.192;2022-09-16T16:01:12;19.10;32.30
40534;DHT22;26233;51.894;10.192;2022-09-16T16:03:52;19.00;32.70
40534;DHT22;26233;51.894;10.192;2022-09-16T16:06:43;18.80;33.00
40534;DHT22;26233;51.894;10.192;2022-09-16T16:09:42;18.60;33.10
40534;DHT22;26233;51.894;10.192;2022-09-16T16:12:13;18.10;33.30
40534;DHT22;26233;51.894;10.192;2022-09-16T16:14:44;17.70;33.30